sensor_id;sensor_type;location;lat;lon;timestamp;pressure;altitude;pressure_sealevel;temperature;humidity
50310;BME280;36207;51.850;21.698;2023-07-29T00:01:37;99126.18;;;17.76;78.93
50310;BME280;36207;51.850;21.698;2023-07-29T00:04:03;99126.02;;;17.76;79.12
50310;BME280;36207;51.850;21.698;2023-07-29T00:06:29;99125.10;;;17.76;79.06
50310;BME280;36207;51.850;21.698;2023-07-29T00:08:59;99129.08;;;17.74;79.17
50310;BME280;36207;51.850;21.698;2023-07-29T00:11:28;99130.58;;;17.74;79.30
50310;BME280;36207;51.850;21.698;2023-07-29T00:13:54;99130.17;;;17.75;79.26
50310;BME280;36207;51.850;21.698;2023-07-29T00:16:20;99131.94;;;17.79;79.30
50310;BME280;36207;51.850;21.698;2023-07-29T00:18:49;99131.80;;;17.85;79.54
50310;BME280;36207;51.850;21.698;2023-07-29T00:21:15;99131.81;;;17.90;79.57
50310;BME280;36207;51.850;21.698;2023-07-29T00:23:41;99135.30;;;17.92;79.38
50310;BME280;36207;51.850;21.698;2023-07-29T00:26:12;99137.95;;;17.93;79.48
50310;BME280;36207;51.850;21.698;2023-07-29T00:28:50;99142.19;;;17.94;79.74
50310;BME280;36207;51.850;21.698;2023-07-29T00:31:30;99140.48;;;17.96;79.60
50310;BME280;36207;51.850;21.698;2023-07-29T00:33:59;99136.13;;;17.97;79.67
50310;BME280;36207;51.850;21.698;2023-07-29T00:36:25;99137.19;;;17.96;79.51
50310;BME280;36207;51.850;21.698;2023-07-29T00:38:50;99142.09;;;17.95;79.52
50310;BME280;36207;51.850;21.698;2023-07-29T00:41:19;99145.58;;;17.93;79.37
50310;BME280;36207;51.850;21.698;2023-07-29T00:43:46;99145.53;;;17.93;79.55
50310;BME280;36207;51.850;21.698;2023-07-29T00:46:13;99146.98;;;17.93;79.42
50310;BME280;36207;51.850;21.698;2023-07-29T00:48:39;99150.00;;;17.93;79.50
50310;BME280;36207;51.850;21.698;2023-07-29T00:51:05;99148.67;;;17.91;79.50
50310;BME280;36207;51.850;21.698;2023-07-29T00:53:32;99148.45;;;17.90;79.60
50310;BME280;36207;51.850;21.698;2023-07-29T00:55:58;99153.27;;;17.91;79.57
50310;BME280;36207;51.850;21.698;2023-07-29T00:58:24;99152.64;;;17.92;79.70
50310;BME280;36207;51.850;21.698;2023-07-29T01:00:50;99155.35;;;17.92;79.74
50310;BME280;36207;51.850;21.698;2023-07-29T01:03:17;99154.78;;;17.91;79.70
50310;BME280;36207;51.850;21.698;2023-07-29T01:05:54;99155.57;;;17.93;79.81
50310;BME280;36207;51.850;21.698;2023-07-29T01:08:33;99154.46;;;17.95;79.79
50310;BME280;36207;51.850;21.698;2023-07-29T01:13:50;99162.96;;;17.97;79.85
50310;BME280;36207;51.850;21.698;2023-07-29T01:16:25;99163.29;;;17.97;79.89
50310;BME280;36207;51.850;21.698;2023-07-29T01:18:58;99164.13;;;17.99;79.69
50310;BME280;36207;51.850;21.698;2023-07-29T01:21:30;99167.02;;;18.00;79.91
50310;BME280;36207;51.850;21.698;2023-07-29T01:24:00;99166.55;;;18.01;79.95
50310;BME280;36207;51.850;21.698;2023-07-29T01:26:26;99168.55;;;18.01;79.79
50310;BME280;36207;51.850;21.698;2023-07-29T01:28:55;99168.54;;;18.00;79.74
50310;BME280;36207;51.850;21.698;2023-07-29T01:33:59;99169.64;;;18.02;79.93
50310;BME280;36207;51.850;21.698;2023-07-29T01:36:29;99171.59;;;18.06;80.01
50310;BME280;36207;51.850;21.698;2023-07-29T01:38:59;99171.60;;;18.07;80.17
50310;BME280;36207;51.850;21.698;2023-07-29T01:41:26;99170.78;;;18.06;80.10
50310;BME280;36207;51.850;21.698;2023-07-29T01:43:53;99175.75;;;18.06;80.09
50310;BME280;36207;51.850;21.698;2023-07-29T01:46:20;99178.29;;;18.05;79.91
50310;BME280;36207;51.850;21.698;2023-07-29T01:48:46;99181.16;;;18.07;79.96
50310;BME280;36207;51.850;21.698;2023-07-29T01:51:12;99182.04;;;18.08;80.24
50310;BME280;36207;51.850;21.698;2023-07-29T01:53:38;99184.96;;;18.07;80.10
50310;BME280;36207;51.850;21.698;2023-07-29T01:56:04;99181.58;;;18.08;80.05
50310;BME280;36207;51.850;21.698;2023-07-29T01:58:30;99184.11;;;18.08;80.07
50310;BME280;36207;51.850;21.698;2023-07-29T02:00:56;99184.92;;;18.10;80.12
50310;BME280;36207;51.850;21.698;2023-07-29T02:03:23;99179.23;;;18.11;80.02
50310;BME280;36207;51.850;21.698;2023-07-29T02:05:49;99180.98;;;18.10;80.14
50310;BME280;36207;51.850;21.698;2023-07-29T02:08:15;99185.19;;;18.08;79.96
50310;BME280;36207;51.850;21.698;2023-07-29T02:10:41;99184.92;;;18.09;80.08
50310;BME280;36207;51.850;21.698;2023-07-29T02:13:08;99185.73;;;18.10;80.26
50310;BME280;36207;51.850;21.698;2023-07-29T02:15:34;99191.19;;;18.13;80.12
50310;BME280;36207;51.850;21.698;2023-07-29T02:18:00;99192.03;;;18.14;80.19
50310;BME280;36207;51.850;21.698;2023-07-29T02:20:27;99195.05;;;18.15;80.10
50310;BME280;36207;51.850;21.698;2023-07-29T02:22:53;99199.92;;;18.16;80.29
50310;BME280;36207;51.850;21.698;2023-07-29T02:25:19;99206.20;;;18.17;80.27
50310;BME280;36207;51.850;21.698;2023-07-29T02:27:45;99208.52;;;18.19;80.27
50310;BME280;36207;51.850;21.698;2023-07-29T02:30:11;99208.98;;;18.22;80.27
50310;BME280;36207;51.850;21.698;2023-07-29T02:32:38;99210.04;;;18.23;80.34
50310;BME280;36207;51.850;21.698;2023-07-29T02:35:17;99211.86;;;18.23;80.25
50310;BME280;36207;51.850;21.698;2023-07-29T02:37:43;99209.70;;;18.22;80.34
50310;BME280;36207;51.850;21.698;2023-07-29T02:40:09;99215.88;;;18.21;80.37
50310;BME280;36207;51.850;21.698;2023-07-29T02:42:36;99217.05;;;18.22;80.36
50310;BME280;36207;51.850;21.698;2023-07-29T02:45:02;99216.41;;;18.23;80.27
50310;BME280;36207;51.850;21.698;2023-07-29T02:47:28;99215.42;;;18.22;80.42
50310;BME280;36207;51.850;21.698;2023-07-29T02:49:54;99215.61;;;18.24;80.62
50310;BME280;36207;51.850;21.698;2023-07-29T02:52:20;99216.56;;;18.27;80.59
50310;BME280;36207;51.850;21.698;2023-07-29T02:54:46;99217.77;;;18.28;80.53
50310;BME280;36207;51.850;21.698;2023-07-29T02:57:13;99217.69;;;18.29;80.53
50310;BME280;36207;51.850;21.698;2023-07-29T02:59:39;99221.20;;;18.29;80.56
50310;BME280;36207;51.850;21.698;2023-07-29T03:02:05;99224.95;;;18.31;80.60
50310;BME280;36207;51.850;21.698;2023-07-29T03:04:31;99222.91;;;18.29;80.15
50310;BME280;36207;51.850;21.698;2023-07-29T03:06:57;99225.52;;;18.29;80.22
50310;BME280;36207;51.850;21.698;2023-07-29T03:09:25;99225.14;;;18.29;80.24
50310;BME280;36207;51.850;21.698;2023-07-29T03:11:51;99226.98;;;18.28;80.37
50310;BME280;36207;51.850;21.698;2023-07-29T03:14:18;99226.00;;;18.29;80.43
50310;BME280;36207;51.850;21.698;2023-07-29T03:16:44;99227.65;;;18.30;80.60
50310;BME280;36207;51.850;21.698;2023-07-29T03:19:12;99230.63;;;18.31;80.40
50310;BME280;36207;51.850;21.698;2023-07-29T03:21:38;99233.38;;;18.30;80.18
50310;BME280;36207;51.850;21.698;2023-07-29T03:24:04;99237.96;;;18.30;80.39
50310;BME280;36207;51.850;21.698;2023-07-29T03:26:30;99239.41;;;18.28;80.49
50310;BME280;36207;51.850;21.698;2023-07-29T03:28:56;99240.38;;;18.28;80.30
50310;BME280;36207;51.850;21.698;2023-07-29T03:31:21;99236.67;;;18.27;80.37
50310;BME280;36207;51.850;21.698;2023-07-29T03:33:47;99240.61;;;18.26;80.50
50310;BME280;36207;51.850;21.698;2023-07-29T03:36:13;99245.59;;;18.26;80.45
50310;BME280;36207;51.850;21.698;2023-07-29T03:38:39;99246.00;;;18.25;80.46
50310;BME280;36207;51.850;21.698;2023-07-29T03:41:09;99247.77;;;18.23;80.30
50310;BME280;36207;51.850;21.698;2023-07-29T03:43:35;99251.40;;;18.21;80.40
50310;BME280;36207;51.850;21.698;2023-07-29T03:46:01;99251.66;;;18.20;80.46
50310;BME280;36207;51.850;21.698;2023-07-29T03:48:27;99258.17;;;18.18;80.58
50310;BME280;36207;51.850;21.698;2023-07-29T03:50:53;99258.86;;;18.17;80.48
50310;BME280;36207;51.850;21.698;2023-07-29T03:53:20;99260.58;;;18.17;80.40
50310;BME280;36207;51.850;21.698;2023-07-29T03:55:46;99256.52;;;18.16;80.46
50310;BME280;36207;51.850;21.698;2023-07-29T03:58:12;99252.55;;;18.19;80.43
50310;BME280;36207;51.850;21.698;2023-07-29T04:00:38;99255.23;;;18.21;80.66
50310;BME280;36207;51.850;21.698;2023-07-29T04:03:04;99260.06;;;18.22;80.45
50310;BME280;36207;51.850;21.698;2023-07-29T04:05:30;99261.52;;;18.22;80.51
50310;BME280;36207;51.850;21.698;2023-07-29T04:07:56;99264.48;;;18.22;80.52
50310;BME280;36207;51.850;21.698;2023-07-29T04:10:22;99267.92;;;18.21;80.57
50310;BME280;36207;51.850;21.698;2023-07-29T04:12:48;99271.12;;;18.22;80.37
50310;BME280;36207;51.850;21.698;2023-07-29T04:15:14;99270.73;;;18.23;80.49
50310;BME280;36207;51.850;21.698;2023-07-29T04:17:40;99275.84;;;18.26;80.57
50310;BME280;36207;51.850;21.698;2023-07-29T04:20:07;99277.17;;;18.28;80.62
50310;BME280;36207;51.850;21.698;2023-07-29T04:22:33;99276.89;;;18.31;80.71
50310;BME280;36207;51.850;21.698;2023-07-29T04:24:59;99280.18;;;18.34;80.64
50310;BME280;36207;51.850;21.698;2023-07-29T04:27:25;99288.25;;;18.35;80.68
50310;BME280;36207;51.850;21.698;2023-07-29T04:29:51;99290.31;;;18.36;80.41
50310;BME280;36207;51.850;21.698;2023-07-29T04:32:17;99290.10;;;18.39;80.61
50310;BME280;36207;51.850;21.698;2023-07-29T04:34:43;99290.67;;;18.41;80.67
50310;BME280;36207;51.850;21.698;2023-07-29T04:37:09;99289.24;;;18.44;80.69
50310;BME280;36207;51.850;21.698;2023-07-29T04:39:35;99288.11;;;18.44;80.57
50310;BME280;36207;51.850;21.698;2023-07-29T04:42:01;99293.69;;;18.44;80.61
50310;BME280;36207;51.850;21.698;2023-07-29T04:44:27;99295.58;;;18.44;80.47
50310;BME280;36207;51.850;21.698;2023-07-29T04:46:53;99294.80;;;18.43;80.64
50310;BME280;36207;51.850;21.698;2023-07-29T04:49:19;99298.10;;;18.43;80.59
50310;BME280;36207;51.850;21.698;2023-07-29T04:51:45;99301.05;;;18.45;80.90
50310;BME280;36207;51.850;21.698;2023-07-29T04:54:11;99307.39;;;18.49;80.77
50310;BME280;36207;51.850;21.698;2023-07-29T04:56:37;99308.80;;;18.50;80.67
50310;BME280;36207;51.850;21.698;2023-07-29T04:59:03;99310.52;;;18.49;80.60
50310;BME280;36207;51.850;21.698;2023-07-29T05:01:29;99314.34;;;18.52;80.77
50310;BME280;36207;51.850;21.698;2023-07-29T05:03:55;99320.08;;;18.57;80.69
50310;BME280;36207;51.850;21.698;2023-07-29T05:06:21;99319.27;;;18.60;80.57
50310;BME280;36207;51.850;21.698;2023-07-29T05:08:47;99322.71;;;18.63;80.74
50310;BME280;36207;51.850;21.698;2023-07-29T05:11:13;99326.06;;;18.66;80.48
50310;BME280;36207;51.850;21.698;2023-07-29T05:13:39;99326.92;;;18.70;80.54
50310;BME280;36207;51.850;21.698;2023-07-29T05:16:05;99327.99;;;18.75;80.48
50310;BME280;36207;51.850;21.698;2023-07-29T05:18:31;99327.13;;;18.79;80.57
50310;BME280;36207;51.850;21.698;2023-07-29T05:20:57;99333.08;;;18.90;80.83
50310;BME280;36207;51.850;21.698;2023-07-29T05:23:23;99333.88;;;19.02;80.68
50310;BME280;36207;51.850;21.698;2023-07-29T05:25:49;99334.42;;;19.07;80.46
50310;BME280;36207;51.850;21.698;2023-07-29T05:28:14;99339.04;;;19.16;80.49
50310;BME280;36207;51.850;21.698;2023-07-29T05:30:40;99342.83;;;19.21;80.50
50310;BME280;36207;51.850;21.698;2023-07-29T05:33:06;99346.05;;;19.23;80.13
50310;BME280;36207;51.850;21.698;2023-07-29T05:35:35;99345.77;;;19.22;80.01
50310;BME280;36207;51.850;21.698;2023-07-29T05:38:01;99345.74;;;19.19;79.91
50310;BME280;36207;51.850;21.698;2023-07-29T05:40:29;99344.46;;;19.16;79.74
50310;BME280;36207;51.850;21.698;2023-07-29T05:42:55;99341.35;;;19.15;79.62
50310;BME280;36207;51.850;21.698;2023-07-29T05:45:21;99342.48;;;19.19;79.78
50310;BME280;36207;51.850;21.698;2023-07-29T05:47:47;99340.61;;;19.30;80.03
50310;BME280;36207;51.850;21.698;2023-07-29T05:50:13;99344.46;;;19.40;79.75
50310;BME280;36207;51.850;21.698;2023-07-29T05:52:39;99344.31;;;19.50;79.71
50310;BME280;36207;51.850;21.698;2023-07-29T05:55:05;99347.14;;;19.56;79.40
50310;BME280;36207;51.850;21.698;2023-07-29T05:57:32;99350.09;;;19.54;79.04
50310;BME280;36207;51.850;21.698;2023-07-29T05:59:58;99350.91;;;19.45;78.93
50310;BME280;36207;51.850;21.698;2023-07-29T06:02:24;99351.52;;;19.36;78.74
50310;BME280;36207;51.850;21.698;2023-07-29T06:04:50;99348.77;;;19.29;78.65
50310;BME280;36207;51.850;21.698;2023-07-29T06:07:16;99348.11;;;19.24;78.50
50310;BME280;36207;51.850;21.698;2023-07-29T06:09:42;99352.90;;;19.21;78.72
50310;BME280;36207;51.850;21.698;2023-07-29T06:12:08;99357.51;;;19.26;79.01
50310;BME280;36207;51.850;21.698;2023-07-29T06:14:34;99357.38;;;19.38;79.09
50310;BME280;36207;51.850;21.698;2023-07-29T06:17:00;99359.34;;;19.49;78.81
50310;BME280;36207;51.850;21.698;2023-07-29T06:19:26;99359.80;;;19.59;78.85
50310;BME280;36207;51.850;21.698;2023-07-29T06:21:55;99366.02;;;19.72;79.03
50310;BME280;36207;51.850;21.698;2023-07-29T06:24:21;99364.91;;;19.85;79.01
50310;BME280;36207;51.850;21.698;2023-07-29T06:26:47;99365.56;;;19.96;78.97
50310;BME280;36207;51.850;21.698;2023-07-29T06:29:13;99367.52;;;20.08;78.84
50310;BME280;36207;51.850;21.698;2023-07-29T06:31:39;99370.35;;;20.16;78.70
50310;BME280;36207;51.850;21.698;2023-07-29T06:34:05;99370.98;;;20.19;78.46
50310;BME280;36207;51.850;21.698;2023-07-29T06:36:31;99372.89;;;20.16;78.17
50310;BME280;36207;51.850;21.698;2023-07-29T06:38:57;99376.42;;;20.10;77.96
50310;BME280;36207;51.850;21.698;2023-07-29T06:41:23;99381.70;;;20.06;77.96
50310;BME280;36207;51.850;21.698;2023-07-29T06:43:48;99385.05;;;19.99;77.68
50310;BME280;36207;51.850;21.698;2023-07-29T06:46:14;99383.66;;;19.91;77.28
50310;BME280;36207;51.850;21.698;2023-07-29T06:48:40;99383.48;;;19.88;77.56
50310;BME280;36207;51.850;21.698;2023-07-29T06:51:06;99385.60;;;19.95;77.74
50310;BME280;36207;51.850;21.698;2023-07-29T06:53:32;99388.48;;;20.08;78.05
50310;BME280;36207;51.850;21.698;2023-07-29T06:55:58;99387.43;;;20.23;77.55
50310;BME280;36207;51.850;21.698;2023-07-29T06:58:24;99389.73;;;20.37;77.52
50310;BME280;36207;51.850;21.698;2023-07-29T07:00:50;99389.04;;;20.47;77.24
50310;BME280;36207;51.850;21.698;2023-07-29T07:03:16;99390.84;;;20.49;76.85
50310;BME280;36207;51.850;21.698;2023-07-29T07:05:42;99391.77;;;20.48;76.84
50310;BME280;36207;51.850;21.698;2023-07-29T07:08:08;99388.58;;;20.44;76.62
50310;BME280;36207;51.850;21.698;2023-07-29T07:10:34;99392.42;;;20.42;76.75
50310;BME280;36207;51.850;21.698;2023-07-29T07:13:00;99392.08;;;20.40;76.82
50310;BME280;36207;51.850;21.698;2023-07-29T07:15:26;99389.66;;;20.43;77.15
50310;BME280;36207;51.850;21.698;2023-07-29T07:17:52;99388.98;;;20.55;77.24
50310;BME280;36207;51.850;21.698;2023-07-29T07:20:18;99387.05;;;20.69;77.40
50310;BME280;36207;51.850;21.698;2023-07-29T07:22:44;99386.69;;;20.87;77.32
50310;BME280;36207;51.850;21.698;2023-07-29T07:25:11;99383.58;;;21.02;76.99
50310;BME280;36207;51.850;21.698;2023-07-29T07:27:37;99391.75;;;21.19;76.63
50310;BME280;36207;51.850;21.698;2023-07-29T07:30:03;99391.30;;;21.26;76.01
50310;BME280;36207;51.850;21.698;2023-07-29T07:32:29;99385.23;;;21.30;75.53
50310;BME280;36207;51.850;21.698;2023-07-29T07:34:55;99387.30;;;21.34;74.14
50310;BME280;36207;51.850;21.698;2023-07-29T07:37:21;99388.11;;;21.38;74.84
50310;BME280;36207;51.850;21.698;2023-07-29T07:39:47;99391.45;;;21.45;74.63
50310;BME280;36207;51.850;21.698;2023-07-29T07:42:13;99389.53;;;21.51;75.03
50310;BME280;36207;51.850;21.698;2023-07-29T07:44:39;99393.85;;;21.59;75.27
50310;BME280;36207;51.850;21.698;2023-07-29T07:47:05;99394.80;;;21.68;75.12
50310;BME280;36207;51.850;21.698;2023-07-29T07:49:31;99393.95;;;21.76;74.92
50310;BME280;36207;51.850;21.698;2023-07-29T07:51:57;99397.46;;;21.88;74.77
50310;BME280;36207;51.850;21.698;2023-07-29T07:54:23;99396.94;;;22.02;75.18
50310;BME280;36207;51.850;21.698;2023-07-29T07:56:49;99397.84;;;22.14;74.74
50310;BME280;36207;51.850;21.698;2023-07-29T07:59:15;99393.82;;;22.16;74.46
50310;BME280;36207;51.850;21.698;2023-07-29T08:01:41;99395.64;;;22.23;74.63
50310;BME280;36207;51.850;21.698;2023-07-29T08:04:07;99393.69;;;22.30;73.75
50310;BME280;36207;51.850;21.698;2023-07-29T08:06:34;99387.42;;;22.25;73.47
50310;BME280;36207;51.850;21.698;2023-07-29T08:09:01;99388.13;;;22.27;73.61
50310;BME280;36207;51.850;21.698;2023-07-29T08:11:27;99387.52;;;22.28;73.45
50310;BME280;36207;51.850;21.698;2023-07-29T08:13:53;99386.23;;;22.30;73.44
50310;BME280;36207;51.850;21.698;2023-07-29T08:16:19;99388.24;;;22.30;73.38
50310;BME280;36207;51.850;21.698;2023-07-29T08:18:45;99386.56;;;22.33;73.75
50310;BME280;36207;51.850;21.698;2023-07-29T08:21:11;99384.92;;;22.45;74.11
50310;BME280;36207;51.850;21.698;2023-07-29T08:23:37;99385.34;;;22.60;74.16
50310;BME280;36207;51.850;21.698;2023-07-29T08:26:04;99383.05;;;22.75;73.89
50310;BME280;36207;51.850;21.698;2023-07-29T08:28:32;99376.98;;;22.88;73.74
50310;BME280;36207;51.850;21.698;2023-07-29T08:30:59;99378.80;;;23.07;73.92
50310;BME280;36207;51.850;21.698;2023-07-29T08:33:25;99380.94;;;23.23;73.00
50310;BME280;36207;51.850;21.698;2023-07-29T08:35:51;99377.56;;;23.36;73.00
50310;BME280;36207;51.850;21.698;2023-07-29T08:38:18;99378.92;;;23.47;72.51
50310;BME280;36207;51.850;21.698;2023-07-29T08:43:14;99376.01;;;23.55;71.34
50310;BME280;36207;51.850;21.698;2023-07-29T08:45:43;99371.48;;;23.52;71.04
50310;BME280;36207;51.850;21.698;2023-07-29T08:48:10;99372.73;;;23.53;71.19
50310;BME280;36207;51.850;21.698;2023-07-29T08:50:37;99373.73;;;23.52;70.21
50310;BME280;36207;51.850;21.698;2023-07-29T08:53:06;99375.63;;;23.51;69.61
50310;BME280;36207;51.850;21.698;2023-07-29T08:55:33;99374.75;;;23.53;69.62
50310;BME280;36207;51.850;21.698;2023-07-29T08:58:00;99373.10;;;23.57;69.25
50310;BME280;36207;51.850;21.698;2023-07-29T09:00:27;99372.41;;;23.64;69.59
50310;BME280;36207;51.850;21.698;2023-07-29T09:02:53;99370.52;;;23.72;69.73
50310;BME280;36207;51.850;21.698;2023-07-29T09:05:22;99371.52;;;23.81;69.72
50310;BME280;36207;51.850;21.698;2023-07-29T09:07:51;99370.65;;;23.82;69.30
50310;BME280;36207;51.850;21.698;2023-07-29T09:10:22;99368.77;;;23.78;69.40
50310;BME280;36207;51.850;21.698;2023-07-29T09:12:49;99369.15;;;23.86;69.89
50310;BME280;36207;51.850;21.698;2023-07-29T09:15:29;99366.59;;;24.02;69.95
50310;BME280;36207;51.850;21.698;2023-07-29T09:17:56;99365.98;;;24.18;69.58
50310;BME280;36207;51.850;21.698;2023-07-29T09:20:27;99367.84;;;24.30;69.60
50310;BME280;36207;51.850;21.698;2023-07-29T09:22:54;99364.89;;;24.37;69.34
50310;BME280;36207;51.850;21.698;2023-07-29T09:25:29;99366.39;;;24.50;69.87
50310;BME280;36207;51.850;21.698;2023-07-29T09:27:59;99369.71;;;24.63;69.53
50310;BME280;36207;51.850;21.698;2023-07-29T09:30:27;99369.79;;;24.71;68.98
50310;BME280;36207;51.850;21.698;2023-07-29T09:32:57;99370.05;;;24.73;68.47
50310;BME280;36207;51.850;21.698;2023-07-29T09:35:27;99371.14;;;24.67;67.74
50310;BME280;36207;51.850;21.698;2023-07-29T09:37:53;99371.57;;;24.68;68.24
50310;BME280;36207;51.850;21.698;2023-07-29T09:40:19;99369.83;;;24.68;67.67
50310;BME280;36207;51.850;21.698;2023-07-29T09:42:50;99369.42;;;24.65;67.48
50310;BME280;36207;51.850;21.698;2023-07-29T09:45:26;99369.39;;;24.57;67.23
50310;BME280;36207;51.850;21.698;2023-07-29T09:47:53;99367.51;;;24.55;66.70
50310;BME280;36207;51.850;21.698;2023-07-29T09:50:23;99365.26;;;24.55;66.51
50310;BME280;36207;51.850;21.698;2023-07-29T09:52:51;99362.64;;;24.60;66.06
50310;BME280;36207;51.850;21.698;2023-07-29T09:55:19;99356.37;;;24.66;65.75
50310;BME280;36207;51.850;21.698;2023-07-29T09:57:45;99354.45;;;24.71;64.78
50310;BME280;36207;51.850;21.698;2023-07-29T10:00:12;99354.48;;;24.77;65.18
50310;BME280;36207;51.850;21.698;2023-07-29T10:02:42;99350.66;;;24.73;64.48
50310;BME280;36207;51.850;21.698;2023-07-29T10:05:09;99349.67;;;24.69;64.47
50310;BME280;36207;51.850;21.698;2023-07-29T10:07:39;99349.67;;;24.78;65.85
50310;BME280;36207;51.850;21.698;2023-07-29T10:10:07;99352.54;;;24.96;65.90
50310;BME280;36207;51.850;21.698;2023-07-29T10:12:34;99345.02;;;25.11;65.86
50310;BME280;36207;51.850;21.698;2023-07-29T10:15:03;99348.73;;;25.26;65.67
50310;BME280;36207;51.850;21.698;2023-07-29T10:17:32;99344.86;;;25.38;65.08
50310;BME280;36207;51.850;21.698;2023-07-29T10:20:00;99341.50;;;25.48;64.78
50310;BME280;36207;51.850;21.698;2023-07-29T10:22:36;99341.38;;;25.53;64.18
50310;BME280;36207;51.850;21.698;2023-07-29T10:25:04;99341.85;;;25.62;63.90
50310;BME280;36207;51.850;21.698;2023-07-29T10:27:42;99349.64;;;25.68;63.21
50310;BME280;36207;51.850;21.698;2023-07-29T10:30:10;99345.98;;;25.72;63.40
50310;BME280;36207;51.850;21.698;2023-07-29T10:32:38;99343.90;;;25.67;61.29
50310;BME280;36207;51.850;21.698;2023-07-29T10:35:05;99346.29;;;25.54;62.24
50310;BME280;36207;51.850;21.698;2023-07-29T10:37:32;99344.94;;;25.45;63.01
50310;BME280;36207;51.850;21.698;2023-07-29T10:39:58;99343.13;;;25.37;62.65
50310;BME280;36207;51.850;21.698;2023-07-29T10:42:24;99348.41;;;25.26;62.61
50310;BME280;36207;51.850;21.698;2023-07-29T10:44:52;99349.16;;;25.17;63.00
50310;BME280;36207;51.850;21.698;2023-07-29T10:47:21;99344.65;;;25.13;62.72
50310;BME280;36207;51.850;21.698;2023-07-29T10:49:51;99343.65;;;25.16;62.67
50310;BME280;36207;51.850;21.698;2023-07-29T10:52:31;99335.37;;;25.24;61.31
50310;BME280;36207;51.850;21.698;2023-07-29T10:55:03;99336.29;;;25.24;61.22
50310;BME280;36207;51.850;21.698;2023-07-29T10:57:45;99337.35;;;25.17;61.41
50310;BME280;36207;51.850;21.698;2023-07-29T11:00:15;99332.96;;;25.07;60.93
50310;BME280;36207;51.850;21.698;2023-07-29T11:02:41;99332.27;;;24.96;60.63
50310;BME280;36207;51.850;21.698;2023-07-29T11:05:16;99327.83;;;24.94;61.15
50310;BME280;36207;51.850;21.698;2023-07-29T11:07:49;99326.63;;;25.08;62.26
50310;BME280;36207;51.850;21.698;2023-07-29T11:10:15;99322.27;;;25.23;62.37
50310;BME280;36207;51.850;21.698;2023-07-29T11:12:52;99322.46;;;25.29;61.84
50310;BME280;36207;51.850;21.698;2023-07-29T11:15:23;99324.65;;;25.29;61.40
50310;BME280;36207;51.850;21.698;2023-07-29T11:18:00;99323.01;;;25.25;61.45
50310;BME280;36207;51.850;21.698;2023-07-29T11:20:31;99322.81;;;25.23;61.16
50310;BME280;36207;51.850;21.698;2023-07-29T11:23:02;99319.91;;;25.19;60.11
50310;BME280;36207;51.850;21.698;2023-07-29T11:25:29;99320.51;;;25.13;60.15
50310;BME280;36207;51.850;21.698;2023-07-29T11:27:57;99316.92;;;25.06;60.16
50310;BME280;36207;51.850;21.698;2023-07-29T11:30:24;99316.30;;;24.98;60.64
50310;BME280;36207;51.850;21.698;2023-07-29T11:32:55;99314.84;;;24.93;60.92
50310;BME280;36207;51.850;21.698;2023-07-29T11:35:21;99315.31;;;24.90;61.04
50310;BME280;36207;51.850;21.698;2023-07-29T11:37:49;99306.90;;;24.86;60.93
50310;BME280;36207;51.850;21.698;2023-07-29T11:40:17;99306.09;;;24.85;61.08
50310;BME280;36207;51.850;21.698;2023-07-29T11:42:45;99305.71;;;24.84;61.20
50310;BME280;36207;51.850;21.698;2023-07-29T11:45:13;99303.00;;;24.83;61.38
50310;BME280;36207;51.850;21.698;2023-07-29T11:47:40;99301.36;;;24.83;61.28
50310;BME280;36207;51.850;21.698;2023-07-29T11:50:11;99297.59;;;24.83;60.99
50310;BME280;36207;51.850;21.698;2023-07-29T11:52:41;99296.19;;;24.86;61.30
50310;BME280;36207;51.850;21.698;2023-07-29T11:55:09;99295.69;;;24.95;61.48
50310;BME280;36207;51.850;21.698;2023-07-29T11:57:37;99291.13;;;25.06;61.25
50310;BME280;36207;51.850;21.698;2023-07-29T12:00:05;99286.53;;;25.12;60.91
50310;BME280;36207;51.850;21.698;2023-07-29T12:02:37;99289.44;;;25.18;60.79
50310;BME280;36207;51.850;21.698;2023-07-29T12:05:04;99287.68;;;25.23;60.32
50310;BME280;36207;51.850;21.698;2023-07-29T12:07:31;99288.88;;;25.23;60.14
50310;BME280;36207;51.850;21.698;2023-07-29T12:09:59;99283.30;;;25.18;59.79
50310;BME280;36207;51.850;21.698;2023-07-29T12:12:25;99285.53;;;25.15;59.84
50310;BME280;36207;51.850;21.698;2023-07-29T12:14:54;99282.27;;;25.14;59.99
50310;BME280;36207;51.850;21.698;2023-07-29T12:17:20;99280.39;;;25.17;60.59
50310;BME280;36207;51.850;21.698;2023-07-29T12:19:46;99280.34;;;25.25;60.59
50310;BME280;36207;51.850;21.698;2023-07-29T12:22:18;99282.09;;;25.40;60.93
50310;BME280;36207;51.850;21.698;2023-07-29T12:24:45;99275.52;;;25.56;60.69
50310;BME280;36207;51.850;21.698;2023-07-29T12:27:13;99267.16;;;25.66;60.05
50310;BME280;36207;51.850;21.698;2023-07-29T12:29:40;99266.56;;;25.72;59.99
50310;BME280;36207;51.850;21.698;2023-07-29T12:32:08;99257.81;;;25.80;60.20
50310;BME280;36207;51.850;21.698;2023-07-29T12:34:35;99257.02;;;25.90;60.42
50310;BME280;36207;51.850;21.698;2023-07-29T12:37:03;99257.80;;;26.03;60.24
50310;BME280;36207;51.850;21.698;2023-07-29T12:39:31;99255.38;;;26.19;60.72
50310;BME280;36207;51.850;21.698;2023-07-29T12:41:59;99253.41;;;26.36;60.69
50310;BME280;36207;51.850;21.698;2023-07-29T12:44:29;99255.36;;;26.53;59.75
50310;BME280;36207;51.850;21.698;2023-07-29T12:46:55;99250.15;;;26.63;59.08
50310;BME280;36207;51.850;21.698;2023-07-29T12:49:21;99248.74;;;26.70;58.33
50310;BME280;36207;51.850;21.698;2023-07-29T12:51:48;99245.70;;;26.72;58.22
50310;BME280;36207;51.850;21.698;2023-07-29T12:54:14;99248.92;;;26.78;58.10
50310;BME280;36207;51.850;21.698;2023-07-29T12:56:40;99242.30;;;26.85;58.46
50310;BME280;36207;51.850;21.698;2023-07-29T12:59:06;99242.10;;;26.94;58.29